sensor_id;sensor_type;location;lat;lon;timestamp;temperature;humidity
53978;DHT22;39886;47.984;-1.586;2022-07-29T00:00:06;25.60;48.40
53978;DHT22;39886;47.984;-1.586;2022-07-29T00:02:32;25.60;48.40
53978;DHT22;39886;47.984;-1.586;2022-07-29T00:04:58;25.60;48.50
53978;DHT22;39886;47.984;-1.586;2022-07-29T00:07:24;25.60;48.40
53978;DHT22;39886;47.984;-1.586;2022-07-29T00:09:50;25.60;48.50
53978;DHT22;39886;47.984;-1.586;2022-07-29T00:12:16;25.60;48.50
53978;DHT22;39886;47.984;-1.586;2022-07-29T00:14:42;25.60;48.50
53978;DHT22;39886;47.984;-1.586;2022-07-29T00:17:08;25.60;48.50
53978;DHT22;39886;47.984;-1.586;2022-07-29T00:19:34;25.60;48.50
53978;DHT22;39886;47.984;-1.586;2022-07-29T00:22:00;25.50;48.50
53978;DHT22;39886;47.984;-1.586;2022-07-29T00:24:26;25.50;48.50
53978;DHT22;39886;47.984;-1.586;2022-07-29T00:26:52;25.50;48.50
53978;DHT22;39886;47.984;-1.586;2022-07-29T00:29:18;25.50;48.60
53978;DHT22;39886;47.984;-1.586;2022-07-29T00:31:44;25.60;48.60
53978;DHT22;39886;47.984;-1.586;2022-07-29T00:34:10;25.50;48.60
53978;DHT22;39886;47.984;-1.586;2022-07-29T00:36:56;25.50;48.60
53978;DHT22;39886;47.984;-1.586;2022-07-29T00:39:22;25.50;48.60
53978;DHT22;39886;47.984;-1.586;2022-07-29T00:41:47;25.50;48.70
53978;DHT22;39886;47.984;-1.586;2022-07-29T00:44:14;25.50;48.70
53978;DHT22;39886;47.984;-1.586;2022-07-29T00:46:40;25.50;48.70
53978;DHT22;39886;47.984;-1.586;2022-07-29T00:49:05;25.50;48.70
53978;DHT22;39886;47.984;-1.586;2022-07-29T00:51:35;25.50;48.70
53978;DHT22;39886;47.984;-1.586;2022-07-29T00:54:02;25.50;48.70
53978;DHT22;39886;47.984;-1.586;2022-07-29T00:56:31;25.40;48.70
53978;DHT22;39886;47.984;-1.586;2022-07-29T00:58:57;25.50;48.70
53978;DHT22;39886;47.984;-1.586;2022-07-29T01:01:24;25.50;48.70
53978;DHT22;39886;47.984;-1.586;2022-07-29T01:03:49;25.40;48.70
53978;DHT22;39886;47.984;-1.586;2022-07-29T01:06:18;25.40;48.70
53978;DHT22;39886;47.984;-1.586;2022-07-29T01:08:45;25.40;48.70
53978;DHT22;39886;47.984;-1.586;2022-07-29T01:11:13;25.40;48.80
53978;DHT22;39886;47.984;-1.586;2022-07-29T01:13:39;25.40;48.70
53978;DHT22;39886;47.984;-1.586;2022-07-29T01:16:15;25.40;48.80
53978;DHT22;39886;47.984;-1.586;2022-07-29T01:18:46;25.40;48.80
53978;DHT22;39886;47.984;-1.586;2022-07-29T01:21:27;25.40;48.80
53978;DHT22;39886;47.984;-1.586;2022-07-29T01:30:01;25.40;48.80
53978;DHT22;39886;47.984;-1.586;2022-07-29T01:32:33;25.40;48.90
53978;DHT22;39886;47.984;-1.586;2022-07-29T01:35:04;25.40;48.90
53978;DHT22;39886;47.984;-1.586;2022-07-29T01:37:48;25.40;48.90
53978;DHT22;39886;47.984;-1.586;2022-07-29T01:43:05;25.30;48.80
53978;DHT22;39886;47.984;-1.586;2022-07-29T01:45:40;25.30;48.90
53978;DHT22;39886;47.984;-1.586;2022-07-29T01:48:16;25.30;48.90
53978;DHT22;39886;47.984;-1.586;2022-07-29T01:50:52;25.30;48.90
53978;DHT22;39886;47.984;-1.586;2022-07-29T01:53:32;25.30;48.90
53978;DHT22;39886;47.984;-1.586;2022-07-29T01:56:01;25.30;48.90
53978;DHT22;39886;47.984;-1.586;2022-07-29T01:58:29;25.30;48.90
53978;DHT22;39886;47.984;-1.586;2022-07-29T02:00:57;25.30;48.90
53978;DHT22;39886;47.984;-1.586;2022-07-29T02:03:24;25.30;48.90
53978;DHT22;39886;47.984;-1.586;2022-07-29T02:05:52;25.30;48.90
53978;DHT22;39886;47.984;-1.586;2022-07-29T02:08:19;25.30;48.90
53978;DHT22;39886;47.984;-1.586;2022-07-29T02:10:47;25.30;49.00
53978;DHT22;39886;47.984;-1.586;2022-07-29T02:13:15;25.30;49.00
53978;DHT22;39886;47.984;-1.586;2022-07-29T02:15:42;25.30;49.00
53978;DHT22;39886;47.984;-1.586;2022-07-29T02:18:20;25.30;49.00
53978;DHT22;39886;47.984;-1.586;2022-07-29T02:20:49;25.30;48.90
53978;DHT22;39886;47.984;-1.586;2022-07-29T02:23:19;25.30;49.00
53978;DHT22;39886;47.984;-1.586;2022-07-29T02:25:50;25.30;49.00
53978;DHT22;39886;47.984;-1.586;2022-07-29T02:28:17;25.30;49.00
53978;DHT22;39886;47.984;-1.586;2022-07-29T02:30:45;25.30;49.00
53978;DHT22;39886;47.984;-1.586;2022-07-29T02:33:14;25.30;49.00
53978;DHT22;39886;47.984;-1.586;2022-07-29T02:35:41;25.30;49.00
53978;DHT22;39886;47.984;-1.586;2022-07-29T02:38:10;25.30;49.00
53978;DHT22;39886;47.984;-1.586;2022-07-29T02:40:56;25.30;49.00
53978;DHT22;39886;47.984;-1.586;2022-07-29T02:43:24;25.30;49.00
53978;DHT22;39886;47.984;-1.586;2022-07-29T02:45:53;25.30;49.10
53978;DHT22;39886;47.984;-1.586;2022-07-29T02:48:25;25.30;49.10
53978;DHT22;39886;47.984;-1.586;2022-07-29T02:50:59;25.30;49.10
53978;DHT22;39886;47.984;-1.586;2022-07-29T02:53:27;25.30;49.00
53978;DHT22;39886;47.984;-1.586;2022-07-29T03:00:47;25.20;49.00
53978;DHT22;39886;47.984;-1.586;2022-07-29T03:03:15;25.30;49.10
53978;DHT22;39886;47.984;-1.586;2022-07-29T03:05:42;25.30;49.10
53978;DHT22;39886;47.984;-1.586;2022-07-29T03:08:10;25.20;49.10
53978;DHT22;39886;47.984;-1.586;2022-07-29T03:10:38;25.30;49.10
53978;DHT22;39886;47.984;-1.586;2022-07-29T03:13:05;25.30;49.10
53978;DHT22;39886;47.984;-1.586;2022-07-29T03:15:32;25.20;49.10
53978;DHT22;39886;47.984;-1.586;2022-07-29T03:17:58;25.30;49.10
53978;DHT22;39886;47.984;-1.586;2022-07-29T03:20:26;25.20;49.10
53978;DHT22;39886;47.984;-1.586;2022-07-29T03:22:52;25.20;49.00
53978;DHT22;39886;47.984;-1.586;2022-07-29T03:25:20;25.20;49.10
53978;DHT22;39886;47.984;-1.586;2022-07-29T03:27:47;25.20;49.10
53978;DHT22;39886;47.984;-1.586;2022-07-29T03:30:13;25.20;49.10
53978;DHT22;39886;47.984;-1.586;2022-07-29T03:32:40;25.20;49.10
53978;DHT22;39886;47.984;-1.586;2022-07-29T03:35:06;25.20;49.10
53978;DHT22;39886;47.984;-1.586;2022-07-29T03:37:32;25.20;49.10
53978;DHT22;39886;47.984;-1.586;2022-07-29T03:40:00;25.20;49.10
53978;DHT22;39886;47.984;-1.586;2022-07-29T03:42:30;25.20;49.30
53978;DHT22;39886;47.984;-1.586;2022-07-29T03:44:57;25.20;49.10
53978;DHT22;39886;47.984;-1.586;2022-07-29T03:47:27;25.20;49.10
53978;DHT22;39886;47.984;-1.586;2022-07-29T03:49:59;25.20;49.10
53978;DHT22;39886;47.984;-1.586;2022-07-29T03:52:25;25.20;49.20
53978;DHT22;39886;47.984;-1.586;2022-07-29T03:54:51;25.20;49.10
53978;DHT22;39886;47.984;-1.586;2022-07-29T03:57:19;25.20;49.20
53978;DHT22;39886;47.984;-1.586;2022-07-29T03:59:46;25.20;49.20
53978;DHT22;39886;47.984;-1.586;2022-07-29T04:02:12;25.20;49.10
53978;DHT22;39886;47.984;-1.586;2022-07-29T04:04:39;25.20;49.20
53978;DHT22;39886;47.984;-1.586;2022-07-29T04:07:05;25.20;49.20
53978;DHT22;39886;47.984;-1.586;2022-07-29T04:09:32;25.20;49.20
53978;DHT22;39886;47.984;-1.586;2022-07-29T04:11:57;25.20;49.20
53978;DHT22;39886;47.984;-1.586;2022-07-29T04:14:23;25.20;49.20
53978;DHT22;39886;47.984;-1.586;2022-07-29T04:16:49;25.10;49.20
53978;DHT22;39886;47.984;-1.586;2022-07-29T04:19:14;25.10;49.20
53978;DHT22;39886;47.984;-1.586;2022-07-29T04:21:41;25.20;49.20
53978;DHT22;39886;47.984;-1.586;2022-07-29T04:24:07;25.10;49.10
53978;DHT22;39886;47.984;-1.586;2022-07-29T04:26:34;25.20;49.30
53978;DHT22;39886;47.984;-1.586;2022-07-29T04:29:00;25.20;49.20
53978;DHT22;39886;47.984;-1.586;2022-07-29T04:31:26;25.20;49.20
53978;DHT22;39886;47.984;-1.586;2022-07-29T04:33:52;25.10;49.20
53978;DHT22;39886;47.984;-1.586;2022-07-29T04:36:17;25.10;49.20
53978;DHT22;39886;47.984;-1.586;2022-07-29T04:38:43;25.10;49.20
53978;DHT22;39886;47.984;-1.586;2022-07-29T04:41:09;25.20;49.30
53978;DHT22;39886;47.984;-1.586;2022-07-29T04:43:35;25.10;49.20
53978;DHT22;39886;47.984;-1.586;2022-07-29T04:46:02;25.10;49.20
53978;DHT22;39886;47.984;-1.586;2022-07-29T04:48:28;25.10;49.20
53978;DHT22;39886;47.984;-1.586;2022-07-29T04:50:55;25.10;49.20
53978;DHT22;39886;47.984;-1.586;2022-07-29T04:53:20;25.10;49.20
53978;DHT22;39886;47.984;-1.586;2022-07-29T04:55:46;25.10;49.20
53978;DHT22;39886;47.984;-1.586;2022-07-29T04:58:12;25.10;49.90
53978;DHT22;39886;47.984;-1.586;2022-07-29T05:00:39;25.10;49.30
53978;DHT22;39886;47.984;-1.586;2022-07-29T05:03:05;25.10;49.30
53978;DHT22;39886;47.984;-1.586;2022-07-29T05:05:30;25.10;49.20
53978;DHT22;39886;47.984;-1.586;2022-07-29T05:07:56;25.10;49.30
53978;DHT22;39886;47.984;-1.586;2022-07-29T05:10:22;25.10;49.30
53978;DHT22;39886;47.984;-1.586;2022-07-29T05:12:48;25.10;49.30
53978;DHT22;39886;47.984;-1.586;2022-07-29T05:15:14;25.10;49.30
53978;DHT22;39886;47.984;-1.586;2022-07-29T05:17:40;25.10;49.30
53978;DHT22;39886;47.984;-1.586;2022-07-29T05:20:06;25.10;49.30
53978;DHT22;39886;47.984;-1.586;2022-07-29T05:22:33;25.10;49.30
53978;DHT22;39886;47.984;-1.586;2022-07-29T05:24:58;25.10;49.30
53978;DHT22;39886;47.984;-1.586;2022-07-29T05:27:24;25.10;49.30
53978;DHT22;39886;47.984;-1.586;2022-07-29T05:29:50;25.10;49.30
53978;DHT22;39886;47.984;-1.586;2022-07-29T05:32:16;25.10;49.30
53978;DHT22;39886;47.984;-1.586;2022-07-29T05:34:42;25.10;49.30
53978;DHT22;39886;47.984;-1.586;2022-07-29T05:37:08;25.10;49.30
53978;DHT22;39886;47.984;-1.586;2022-07-29T05:39:33;25.10;49.30
53978;DHT22;39886;47.984;-1.586;2022-07-29T05:41:59;25.10;49.40
53978;DHT22;39886;47.984;-1.586;2022-07-29T05:44:25;25.10;49.40
53978;DHT22;39886;47.984;-1.586;2022-07-29T05:46:51;25.10;49.30
53978;DHT22;39886;47.984;-1.586;2022-07-29T05:49:16;25.10;49.30
53978;DHT22;39886;47.984;-1.586;2022-07-29T05:51:42;25.10;49.30
53978;DHT22;39886;47.984;-1.586;2022-07-29T05:54:08;25.10;49.30
53978;DHT22;39886;47.984;-1.586;2022-07-29T05:56:36;25.10;49.30
53978;DHT22;39886;47.984;-1.586;2022-07-29T05:59:02;25.10;49.30
53978;DHT22;39886;47.984;-1.586;2022-07-29T06:01:28;25.10;49.30
53978;DHT22;39886;47.984;-1.586;2022-07-29T06:03:54;25.10;49.30
53978;DHT22;39886;47.984;-1.586;2022-07-29T06:06:20;25.10;49.30
53978;DHT22;39886;47.984;-1.586;2022-07-29T06:08:46;25.10;49.30
53978;DHT22;39886;47.984;-1.586;2022-07-29T06:11:11;25.10;49.30
53978;DHT22;39886;47.984;-1.586;2022-07-29T06:13:37;25.10;49.20
53978;DHT22;39886;47.984;-1.586;2022-07-29T06:16:03;25.20;49.20
53978;DHT22;39886;47.984;-1.586;2022-07-29T06:18:29;25.20;49.20
53978;DHT22;39886;47.984;-1.586;2022-07-29T06:20:55;25.20;49.20
53978;DHT22;39886;47.984;-1.586;2022-07-29T06:23:21;25.20;49.20
53978;DHT22;39886;47.984;-1.586;2022-07-29T06:25:47;25.20;49.20
53978;DHT22;39886;47.984;-1.586;2022-07-29T06:28:14;25.20;49.20
53978;DHT22;39886;47.984;-1.586;2022-07-29T06:30:40;25.20;49.20
53978;DHT22;39886;47.984;-1.586;2022-07-29T06:33:06;25.20;49.20
53978;DHT22;39886;47.984;-1.586;2022-07-29T06:35:35;25.20;49.30
53978;DHT22;39886;47.984;-1.586;2022-07-29T06:38:02;25.20;49.20
53978;DHT22;39886;47.984;-1.586;2022-07-29T06:40:28;25.20;49.90
53978;DHT22;39886;47.984;-1.586;2022-07-29T06:43:13;25.20;49.30
53978;DHT22;39886;47.984;-1.586;2022-07-29T06:45:38;25.30;49.40
53978;DHT22;39886;47.984;-1.586;2022-07-29T06:48:06;25.20;49.40
53978;DHT22;39886;47.984;-1.586;2022-07-29T06:50:32;25.30;49.40
53978;DHT22;39886;47.984;-1.586;2022-07-29T06:52:58;25.30;49.50
53978;DHT22;39886;47.984;-1.586;2022-07-29T06:55:24;25.30;49.50
53978;DHT22;39886;47.984;-1.586;2022-07-29T06:57:50;25.30;49.40
53978;DHT22;39886;47.984;-1.586;2022-07-29T07:00:16;25.30;49.40
53978;DHT22;39886;47.984;-1.586;2022-07-29T07:02:41;25.30;49.50
53978;DHT22;39886;47.984;-1.586;2022-07-29T07:05:07;25.30;49.60
53978;DHT22;39886;47.984;-1.586;2022-07-29T07:07:33;25.30;49.60
53978;DHT22;39886;47.984;-1.586;2022-07-29T07:09:59;25.40;49.80
53978;DHT22;39886;47.984;-1.586;2022-07-29T07:12:24;25.40;50.70
53978;DHT22;39886;47.984;-1.586;2022-07-29T07:14:50;25.40;49.80
53978;DHT22;39886;47.984;-1.586;2022-07-29T07:17:16;25.50;49.50
53978;DHT22;39886;47.984;-1.586;2022-07-29T07:19:42;25.50;49.30
53978;DHT22;39886;47.984;-1.586;2022-07-29T07:22:07;25.50;49.10
53978;DHT22;39886;47.984;-1.586;2022-07-29T07:24:33;25.60;49.10
53978;DHT22;39886;47.984;-1.586;2022-07-29T07:26:59;25.60;48.90
53978;DHT22;39886;47.984;-1.586;2022-07-29T07:29:24;25.60;48.80
53978;DHT22;39886;47.984;-1.586;2022-07-29T07:31:50;25.70;48.60
53978;DHT22;39886;47.984;-1.586;2022-07-29T07:34:16;25.70;48.50
53978;DHT22;39886;47.984;-1.586;2022-07-29T07:36:41;25.70;48.50
53978;DHT22;39886;47.984;-1.586;2022-07-29T07:39:07;25.70;47.80
53978;DHT22;39886;47.984;-1.586;2022-07-29T07:41:33;25.70;47.60
53978;DHT22;39886;47.984;-1.586;2022-07-29T07:43:59;25.70;47.50
53978;DHT22;39886;47.984;-1.586;2022-07-29T07:46:24;25.60;47.40
53978;DHT22;39886;47.984;-1.586;2022-07-29T07:48:50;25.60;47.60
53978;DHT22;39886;47.984;-1.586;2022-07-29T07:51:17;25.60;47.40
53978;DHT22;39886;47.984;-1.586;2022-07-29T07:53:43;25.70;47.70
53978;DHT22;39886;47.984;-1.586;2022-07-29T07:56:10;25.70;47.70
53978;DHT22;39886;47.984;-1.586;2022-07-29T07:58:36;25.70;47.70
53978;DHT22;39886;47.984;-1.586;2022-07-29T08:01:02;25.70;47.30
53978;DHT22;39886;47.984;-1.586;2022-07-29T08:03:28;25.70;47.30
53978;DHT22;39886;47.984;-1.586;2022-07-29T08:05:54;25.80;47.40
53978;DHT22;39886;47.984;-1.586;2022-07-29T08:08:20;25.80;47.50
53978;DHT22;39886;47.984;-1.586;2022-07-29T08:10:46;25.80;47.40
53978;DHT22;39886;47.984;-1.586;2022-07-29T08:13:18;25.70;47.50
53978;DHT22;39886;47.984;-1.586;2022-07-29T08:15:44;25.80;47.50
53978;DHT22;39886;47.984;-1.586;2022-07-29T08:18:13;25.80;47.50
53978;DHT22;39886;47.984;-1.586;2022-07-29T08:20:40;25.80;47.50
53978;DHT22;39886;47.984;-1.586;2022-07-29T08:23:07;25.90;47.50
53978;DHT22;39886;47.984;-1.586;2022-07-29T08:25:36;25.90;47.60
53978;DHT22;39886;47.984;-1.586;2022-07-29T08:28:03;25.90;47.80
53978;DHT22;39886;47.984;-1.586;2022-07-29T08:30:29;25.90;47.70
53978;DHT22;39886;47.984;-1.586;2022-07-29T08:32:55;25.90;47.80
53978;DHT22;39886;47.984;-1.586;2022-07-29T08:35:22;25.90;47.90
53978;DHT22;39886;47.984;-1.586;2022-07-29T08:37:48;26.00;47.90
53978;DHT22;39886;47.984;-1.586;2022-07-29T08:40:14;26.00;47.90
53978;DHT22;39886;47.984;-1.586;2022-07-29T08:42:40;26.00;47.80
53978;DHT22;39886;47.984;-1.586;2022-07-29T08:45:06;26.10;47.90
53978;DHT22;39886;47.984;-1.586;2022-07-29T08:47:33;26.10;48.00
53978;DHT22;39886;47.984;-1.586;2022-07-29T08:50:02;26.10;48.30
53978;DHT22;39886;47.984;-1.586;2022-07-29T08:52:30;26.10;48.00
53978;DHT22;39886;47.984;-1.586;2022-07-29T08:54:56;26.10;48.10
53978;DHT22;39886;47.984;-1.586;2022-07-29T08:57:23;26.10;48.00
53978;DHT22;39886;47.984;-1.586;2022-07-29T08:59:50;26.20;48.20
53978;DHT22;39886;47.984;-1.586;2022-07-29T09:02:21;26.20;48.20
53978;DHT22;39886;47.984;-1.586;2022-07-29T09:04:48;26.20;48.20
53978;DHT22;39886;47.984;-1.586;2022-07-29T09:07:18;26.20;48.10
53978;DHT22;39886;47.984;-1.586;2022-07-29T09:09:45;26.30;48.20
53978;DHT22;39886;47.984;-1.586;2022-07-29T09:12:11;26.20;48.70
53978;DHT22;39886;47.984;-1.586;2022-07-29T09:14:40;26.30;48.20
53978;DHT22;39886;47.984;-1.586;2022-07-29T09:17:07;26.30;48.20
53978;DHT22;39886;47.984;-1.586;2022-07-29T09:19:35;26.30;48.10
53978;DHT22;39886;47.984;-1.586;2022-07-29T09:22:04;26.30;48.30
53978;DHT22;39886;47.984;-1.586;2022-07-29T09:24:39;26.30;48.30
53978;DHT22;39886;47.984;-1.586;2022-07-29T09:27:10;26.30;48.30
53978;DHT22;39886;47.984;-1.586;2022-07-29T09:29:36;26.40;48.30
53978;DHT22;39886;47.984;-1.586;2022-07-29T09:32:07;26.40;48.20
53978;DHT22;39886;47.984;-1.586;2022-07-29T09:34:33;26.40;48.20
53978;DHT22;39886;47.984;-1.586;2022-07-29T09:36:59;26.40;48.20
53978;DHT22;39886;47.984;-1.586;2022-07-29T09:39:33;26.40;48.40
53978;DHT22;39886;47.984;-1.586;2022-07-29T09:42:01;26.40;48.30
53978;DHT22;39886;47.984;-1.586;2022-07-29T09:44:44;26.40;48.30
53978;DHT22;39886;47.984;-1.586;2022-07-29T09:47:10;26.50;48.30
53978;DHT22;39886;47.984;-1.586;2022-07-29T09:49:58;26.50;48.30
53978;DHT22;39886;47.984;-1.586;2022-07-29T09:52:29;26.50;48.50
53978;DHT22;39886;47.984;-1.586;2022-07-29T09:55:06;26.50;48.60
53978;DHT22;39886;47.984;-1.586;2022-07-29T09:57:32;26.50;48.60
53978;DHT22;39886;47.984;-1.586;2022-07-29T10:00:04;26.50;48.40
53978;DHT22;39886;47.984;-1.586;2022-07-29T10:02:36;26.60;48.60
53978;DHT22;39886;47.984;-1.586;2022-07-29T10:05:04;26.60;48.60
53978;DHT22;39886;47.984;-1.586;2022-07-29T10:10:23;26.60;48.50
53978;DHT22;39886;47.984;-1.586;2022-07-29T10:12:54;26.60;48.40
53978;DHT22;39886;47.984;-1.586;2022-07-29T10:15:26;26.60;48.40
53978;DHT22;39886;47.984;-1.586;2022-07-29T10:17:53;26.70;48.50
53978;DHT22;39886;47.984;-1.586;2022-07-29T10:20:21;26.70;48.40
53978;DHT22;39886;47.984;-1.586;2022-07-29T10:22:48;26.70;48.20
53978;DHT22;39886;47.984;-1.586;2022-07-29T10:25:15;26.80;48.30
53978;DHT22;39886;47.984;-1.586;2022-07-29T10:27:42;26.80;48.30
53978;DHT22;39886;47.984;-1.586;2022-07-29T10:30:08;26.70;48.30
53978;DHT22;39886;47.984;-1.586;2022-07-29T10:41:26;26.80;48.20
53978;DHT22;39886;47.984;-1.586;2022-07-29T10:46:39;26.80;48.10
53978;DHT22;39886;47.984;-1.586;2022-07-29T10:59:44;26.90;48.10
53978;DHT22;39886;47.984;-1.586;2022-07-29T11:04:59;26.90;48.00
53978;DHT22;39886;47.984;-1.586;2022-07-29T11:07:27;27.00;48.00
53978;DHT22;39886;47.984;-1.586;2022-07-29T11:15:10;27.00;47.90
53978;DHT22;39886;47.984;-1.586;2022-07-29T11:20:42;27.10;48.00
53978;DHT22;39886;47.984;-1.586;2022-07-29T11:28:58;27.10;47.90
53978;DHT22;39886;47.984;-1.586;2022-07-29T11:31:37;27.10;48.00
53978;DHT22;39886;47.984;-1.586;2022-07-29T11:34:29;27.10;48.00
53978;DHT22;39886;47.984;-1.586;2022-07-29T11:45:19;27.20;48.40
53978;DHT22;39886;47.984;-1.586;2022-07-29T11:50:14;27.20;48.60
53978;DHT22;39886;47.984;-1.586;2022-07-29T11:52:42;27.20;48.40
53978;DHT22;39886;47.984;-1.586;2022-07-29T11:55:10;27.20;48.30
53978;DHT22;39886;47.984;-1.586;2022-07-29T11:57:45;27.20;48.20
53978;DHT22;39886;47.984;-1.586;2022-07-29T12:00:12;27.20;48.80
53978;DHT22;39886;47.984;-1.586;2022-07-29T12:02:45;27.20;48.10
53978;DHT22;39886;47.984;-1.586;2022-07-29T12:05:11;27.30;48.20
53978;DHT22;39886;47.984;-1.586;2022-07-29T12:07:38;27.30;48.20
53978;DHT22;39886;47.984;-1.586;2022-07-29T12:10:05;27.30;48.20
53978;DHT22;39886;47.984;-1.586;2022-07-29T12:12:31;27.30;48.20
53978;DHT22;39886;47.984;-1.586;2022-07-29T12:14:57;27.40;48.20
53978;DHT22;39886;47.984;-1.586;2022-07-29T12:17:31;27.40;48.20
53978;DHT22;39886;47.984;-1.586;2022-07-29T12:19:58;27.40;48.20
53978;DHT22;39886;47.984;-1.586;2022-07-29T12:22:32;27.40;48.10
53978;DHT22;39886;47.984;-1.586;2022-07-29T12:25:04;27.40;47.90
53978;DHT22;39886;47.984;-1.586;2022-07-29T12:27:31;27.40;47.90
53978;DHT22;39886;47.984;-1.586;2022-07-29T12:30:08;27.50;47.80
53978;DHT22;39886;47.984;-1.586;2022-07-29T12:32:36;27.50;47.80
53978;DHT22;39886;47.984;-1.586;2022-07-29T12:35:07;27.50;47.70
53978;DHT22;39886;47.984;-1.586;2022-07-29T12:37:35;27.50;47.60
53978;DHT22;39886;47.984;-1.586;2022-07-29T12:40:04;27.50;47.50
53978;DHT22;39886;47.984;-1.586;2022-07-29T12:42:30;27.50;47.40
53978;DHT22;39886;47.984;-1.586;2022-07-29T12:44:56;27.60;47.40
53978;DHT22;39886;47.984;-1.586;2022-07-29T12:47:22;27.60;47.40
53978;DHT22;39886;47.984;-1.586;2022-07-29T12:49:49;27.60;47.50
53978;DHT22;39886;47.984;-1.586;2022-07-29T12:52:28;27.60;47.40
53978;DHT22;39886;47.984;-1.586;2022-07-29T12:54:54;27.60;47.40
53978;DHT22;39886;47.984;-1.586;2022-07-29T12:57:20;27.70;47.40
53978;DHT22;39886;47.984;-1.586;2022-07-29T12:59:59;27.70;47.40
53978;DHT22;39886;47.984;-1.586;2022-07-29T13:02:25;27.70;47.30
53978;DHT22;39886;47.984;-1.586;2022-07-29T13:04:58;27.70;47.30
53978;DHT22;39886;47.984;-1.586;2022-07-29T13:07:29;27.80;47.30
53978;DHT22;39886;47.984;-1.586;2022-07-29T13:10:15;27.80;47.10
53978;DHT22;39886;47.984;-1.586;2022-07-29T13:13:08;27.80;47.00
53978;DHT22;39886;47.984;-1.586;2022-07-29T13:15:39;27.80;46.80
53978;DHT22;39886;47.984;-1.586;2022-07-29T13:18:29;27.80;46.70
53978;DHT22;39886;47.984;-1.586;2022-07-29T13:20:56;27.80;46.70
53978;DHT22;39886;47.984;-1.586;2022-07-29T13:23:22;27.80;46.70
53978;DHT22;39886;47.984;-1.586;2022-07-29T13:25:48;27.90;46.60
53978;DHT22;39886;47.984;-1.586;2022-07-29T13:28:14;27.90;46.50
53978;DHT22;39886;47.984;-1.586;2022-07-29T13:30:40;27.90;46.30
53978;DHT22;39886;47.984;-1.586;2022-07-29T13:33:06;27.90;46.30
53978;DHT22;39886;47.984;-1.586;2022-07-29T13:35:32;27.90;46.30
53978;DHT22;39886;47.984;-1.586;2022-07-29T13:37:58;27.90;46.20
53978;DHT22;39886;47.984;-1.586;2022-07-29T13:40:24;27.90;46.20
53978;DHT22;39886;47.984;-1.586;2022-07-29T13:42:49;27.90;46.40
53978;DHT22;39886;47.984;-1.586;2022-07-29T13:45:15;28.00;46.30
53978;DHT22;39886;47.984;-1.586;2022-07-29T13:47:41;28.00;46.30
53978;DHT22;39886;47.984;-1.586;2022-07-29T13:50:08;28.00;46.40
53978;DHT22;39886;47.984;-1.586;2022-07-29T13:52:35;28.00;46.40
53978;DHT22;39886;47.984;-1.586;2022-07-29T13:55:01;28.00;46.30
53978;DHT22;39886;47.984;-1.586;2022-07-29T13:57:27;28.00;46.50
53978;DHT22;39886;47.984;-1.586;2022-07-29T13:59:53;28.00;46.50
53978;DHT22;39886;47.984;-1.586;2022-07-29T14:02:19;28.00;46.50
53978;DHT22;39886;47.984;-1.586;2022-07-29T14:04:45;28.00;46.50
53978;DHT22;39886;47.984;-1.586;2022-07-29T14:07:11;28.00;46.60
53978;DHT22;39886;47.984;-1.586;2022-07-29T14:09:37;28.10;46.70
53978;DHT22;39886;47.984;-1.586;2022-07-29T14:12:03;28.10;46.60
53978;DHT22;39886;47.984;-1.586;2022-07-29T14:14:29;28.10;46.70
53978;DHT22;39886;47.984;-1.586;2022-07-29T14:16:57;28.10;46.60
53978;DHT22;39886;47.984;-1.586;2022-07-29T14:19:22;28.10;46.70
53978;DHT22;39886;47.984;-1.586;2022-07-29T14:21:48;28.10;46.70
53978;DHT22;39886;47.984;-1.586;2022-07-29T14:24:14;28.20;46.80
53978;DHT22;39886;47.984;-1.586;2022-07-29T14:26:39;28.20;46.80
53978;DHT22;39886;47.984;-1.586;2022-07-29T14:29:05;28.20;46.80
53978;DHT22;39886;47.984;-1.586;2022-07-29T14:31:31;28.20;46.70
53978;DHT22;39886;47.984;-1.586;2022-07-29T14:33:57;28.20;46.70
53978;DHT22;39886;47.984;-1.586;2022-07-29T14:36:22;28.30;46.60
53978;DHT22;39886;47.984;-1.586;2022-07-29T14:38:48;28.40;46.50
53978;DHT22;39886;47.984;-1.586;2022-07-29T14:41:15;28.40;46.40
53978;DHT22;39886;47.984;-1.586;2022-07-29T14:43:41;28.40;46.40
53978;DHT22;39886;47.984;-1.586;2022-07-29T14:46:06;28.40;46.40
53978;DHT22;39886;47.984;-1.586;2022-07-29T14:48:33;28.40;46.30
53978;DHT22;39886;47.984;-1.586;2022-07-29T14:50:59;28.40;46.20
53978;DHT22;39886;47.984;-1.586;2022-07-29T14:53:24;28.40;46.20
53978;DHT22;39886;47.984;-1.586;2022-07-29T14:55:50;28.40;45.70
53978;DHT22;39886;47.984;-1.586;2022-07-29T14:58:16;28.40;45.80
53978;DHT22;39886;47.984;-1.586;2022-07-29T15:00:42;28.40;45.90
53978;DHT22;39886;47.984;-1.586;2022-07-29T15:03:08;28.40;45.90
53978;DHT22;39886;47.984;-1.586;2022-07-29T15:05:35;28.40;45.80
53978;DHT22;39886;47.984;-1.586;2022-07-29T15:08:03;28.40;45.90
53978;DHT22;39886;47.984;-1.586;2022-07-29T15:10:29;28.40;46.00
53978;DHT22;39886;47.984;-1.586;2022-07-29T15:12:55;28.40;46.00
53978;DHT22;39886;47.984;-1.586;2022-07-29T15:15:21;28.30;46.10
53978;DHT22;39886;47.984;-1.586;2022-07-29T15:17:47;28.40;46.20
53978;DHT22;39886;47.984;-1.586;2022-07-29T15:20:13;28.40;46.20
53978;DHT22;39886;47.984;-1.586;2022-07-29T15:22:39;28.40;46.30
53978;DHT22;39886;47.984;-1.586;2022-07-29T15:25:06;28.30;46.30
53978;DHT22;39886;47.984;-1.586;2022-07-29T15:27:32;28.30;46.20
53978;DHT22;39886;47.984;-1.586;2022-07-29T15:29:58;28.40;46.30
53978;DHT22;39886;47.984;-1.586;2022-07-29T15:32:24;28.40;46.30
53978;DHT22;39886;47.984;-1.586;2022-07-29T15:34:50;28.30;46.30
53978;DHT22;39886;47.984;-1.586;2022-07-29T15:37:15;28.30;46.30
53978;DHT22;39886;47.984;-1.586;2022-07-29T15:39:41;28.30;46.40
53978;DHT22;39886;47.984;-1.586;2022-07-29T15:42:07;28.30;46.40
53978;DHT22;39886;47.984;-1.586;2022-07-29T15:44:33;28.30;46.40
53978;DHT22;39886;47.984;-1.586;2022-07-29T15:46:59;28.40;46.40
53978;DHT22;39886;47.984;-1.586;2022-07-29T15:49:38;28.40;46.40
53978;DHT22;39886;47.984;-1.586;2022-07-29T15:52:06;28.40;46.40
53978;DHT22;39886;47.984;-1.586;2022-07-29T15:54:34;28.30;46.40
53978;DHT22;39886;47.984;-1.586;2022-07-29T15:57:00;28.30;46.40
53978;DHT22;39886;47.984;-1.586;2022-07-29T15:59:26;28.40;46.40
53978;DHT22;39886;47.984;-1.586;2022-07-29T16:01:52;28.30;46.30
53978;DHT22;39886;47.984;-1.586;2022-07-29T16:04:18;28.30;46.40
53978;DHT22;39886;47.984;-1.586;2022-07-29T16:06:44;28.30;46.30
53978;DHT22;39886;47.984;-1.586;2022-07-29T16:09:11;28.40;46.40
53978;DHT22;39886;47.984;-1.586;2022-07-29T16:11:37;28.40;46.40
53978;DHT22;39886;47.984;-1.586;2022-07-29T16:14:03;28.40;46.30
53978;DHT22;39886;47.984;-1.586;2022-07-29T16:16:29;28.40;46.20
53978;DHT22;39886;47.984;-1.586;2022-07-29T16:18:54;28.40;46.20
53978;DHT22;39886;47.984;-1.586;2022-07-29T16:21:20;28.40;46.20
53978;DHT22;39886;47.984;-1.586;2022-07-29T16:23:49;28.40;45.90